sensor_id;sensor_type;location;lat;lon;timestamp;noise_LAeq;noise_LA_min;noise_LA_max;noise_LA01;noise_LA95
73342;Laerm;61578;52.002;5.468;2023-07-31T00:00:24;47.48;43.78;66.76;;
73342;Laerm;61578;52.002;5.468;2023-07-31T00:01:14;46.63;41.98;65.49;;
73342;Laerm;61578;52.002;5.468;2023-07-31T00:01:45;44.10;41.11;61.80;;
73342;Laerm;61578;52.002;5.468;2023-07-31T00:02:34;43.82;41.03;61.67;;
73342;Laerm;61578;52.002;5.468;2023-07-31T00:03:05;43.97;41.29;63.35;;
73342;Laerm;61578;52.002;5.468;2023-07-31T00:03:35;43.45;41.10;45.97;;
73342;Laerm;61578;52.002;5.468;2023-07-31T00:04:25;44.13;40.62;66.56;;
73342;Laerm;61578;52.002;5.468;2023-07-31T00:05:16;43.31;40.49;58.10;;
73342;Laerm;61578;52.002;5.468;2023-07-31T00:05:55;43.06;40.44;56.46;;
73342;Laerm;61578;52.002;5.468;2023-07-31T00:06:45;43.87;40.08;65.26;;
73342;Laerm;61578;52.002;5.468;2023-07-31T00:07:34;43.24;40.44;61.71;;
73342;Laerm;61578;52.002;5.468;2023-07-31T00:08:23;42.95;40.35;46.13;;
73342;Laerm;61578;52.002;5.468;2023-07-31T00:08:57;42.87;40.02;46.07;;
73342;Laerm;61578;52.002;5.468;2023-07-31T00:09:46;42.92;39.91;46.17;;
73342;Laerm;61578;52.002;5.468;2023-07-31T00:10:17;43.09;40.76;46.38;;
73342;Laerm;61578;52.002;5.468;2023-07-31T00:10:52;42.77;39.30;46.11;;
73342;Laerm;61578;52.002;5.468;2023-07-31T00:11:34;42.91;39.86;47.01;;
73342;Laerm;61578;52.002;5.468;2023-07-31T00:12:11;42.91;39.82;46.43;;
73342;Laerm;61578;52.002;5.468;2023-07-31T00:12:45;42.76;40.00;45.45;;
73342;Laerm;61578;52.002;5.468;2023-07-31T00:13:19;44.18;40.26;67.96;;
73342;Laerm;61578;52.002;5.468;2023-07-31T00:13:50;43.25;40.75;46.13;;
73342;Laerm;61578;52.002;5.468;2023-07-31T00:14:23;43.11;40.36;46.90;;
73342;Laerm;61578;52.002;5.468;2023-07-31T00:14:57;42.82;40.29;46.25;;
73342;Laerm;61578;52.002;5.468;2023-07-31T00:15:46;42.90;40.09;46.65;;
73342;Laerm;61578;52.002;5.468;2023-07-31T00:16:20;42.69;40.14;46.74;;
73342;Laerm;61578;52.002;5.468;2023-07-31T00:16:51;42.80;40.50;45.77;;
73342;Laerm;61578;52.002;5.468;2023-07-31T00:17:40;42.92;40.18;45.72;;
73342;Laerm;61578;52.002;5.468;2023-07-31T00:18:11;43.09;39.93;45.73;;
73342;Laerm;61578;52.002;5.468;2023-07-31T00:18:42;42.92;40.34;47.45;;
73342;Laerm;61578;52.002;5.468;2023-07-31T00:19:31;42.91;40.33;46.88;;
73342;Laerm;61578;52.002;5.468;2023-07-31T00:20:21;42.81;39.81;45.83;;
73342;Laerm;61578;52.002;5.468;2023-07-31T00:20:52;42.80;39.78;45.54;;
73342;Laerm;61578;52.002;5.468;2023-07-31T00:21:41;42.82;40.17;45.90;;
73342;Laerm;61578;52.002;5.468;2023-07-31T00:22:31;43.05;40.22;46.29;;
73342;Laerm;61578;52.002;5.468;2023-07-31T00:23:04;42.69;40.15;46.22;;
73342;Laerm;61578;52.002;5.468;2023-07-31T00:23:35;42.87;40.04;45.59;;
73342;Laerm;61578;52.002;5.468;2023-07-31T00:24:06;42.55;40.35;45.05;;
73342;Laerm;61578;52.002;5.468;2023-07-31T00:24:36;42.73;40.01;45.76;;
73342;Laerm;61578;52.002;5.468;2023-07-31T00:25:10;42.93;40.19;46.49;;
73342;Laerm;61578;52.002;5.468;2023-07-31T00:25:41;42.96;40.21;46.62;;
73342;Laerm;61578;52.002;5.468;2023-07-31T00:26:12;42.79;39.63;45.86;;
73342;Laerm;61578;52.002;5.468;2023-07-31T00:26:46;42.83;40.26;46.76;;
73342;Laerm;61578;52.002;5.468;2023-07-31T00:27:17;42.83;40.02;46.42;;
73342;Laerm;61578;52.002;5.468;2023-07-31T00:27:48;42.84;40.21;45.92;;
73342;Laerm;61578;52.002;5.468;2023-07-31T00:28:19;42.74;40.33;45.66;;
73342;Laerm;61578;52.002;5.468;2023-07-31T00:28:49;42.84;39.92;46.05;;
73342;Laerm;61578;52.002;5.468;2023-07-31T00:29:39;43.17;40.11;46.35;;
73342;Laerm;61578;52.002;5.468;2023-07-31T00:30:28;42.84;40.05;46.50;;
73342;Laerm;61578;52.002;5.468;2023-07-31T00:30:59;42.87;40.12;46.46;;
73342;Laerm;61578;52.002;5.468;2023-07-31T00:31:48;42.91;39.90;46.28;;
73342;Laerm;61578;52.002;5.468;2023-07-31T00:32:38;42.93;40.45;46.43;;
73342;Laerm;61578;52.002;5.468;2023-07-31T00:33:27;43.39;40.30;46.92;;
73342;Laerm;61578;52.002;5.468;2023-07-31T00:34:17;43.10;39.88;61.01;;
73342;Laerm;61578;52.002;5.468;2023-07-31T00:35:06;43.14;39.91;47.03;;
73342;Laerm;61578;52.002;5.468;2023-07-31T00:35:37;43.12;40.91;46.17;;
73342;Laerm;61578;52.002;5.468;2023-07-31T00:36:27;43.09;40.33;46.48;;
73342;Laerm;61578;52.002;5.468;2023-07-31T00:37:09;42.84;40.22;45.74;;
73342;Laerm;61578;52.002;5.468;2023-07-31T00:37:40;43.01;40.19;46.11;;
73342;Laerm;61578;52.002;5.468;2023-07-31T00:38:30;42.74;40.17;46.21;;
73342;Laerm;61578;52.002;5.468;2023-07-31T00:39:15;43.15;39.65;46.65;;
73342;Laerm;61578;52.002;5.468;2023-07-31T00:39:47;43.20;40.13;46.68;;
73342;Laerm;61578;52.002;5.468;2023-07-31T00:40:37;43.09;40.27;48.82;;
73342;Laerm;61578;52.002;5.468;2023-07-31T00:41:19;43.34;40.34;47.21;;
73342;Laerm;61578;52.002;5.468;2023-07-31T00:41:50;42.98;40.12;45.92;;
73342;Laerm;61578;52.002;5.468;2023-07-31T00:42:21;43.32;40.64;46.32;;
73342;Laerm;61578;52.002;5.468;2023-07-31T00:42:52;43.13;40.58;46.11;;
73342;Laerm;61578;52.002;5.468;2023-07-31T00:43:25;43.26;40.46;46.25;;
73342;Laerm;61578;52.002;5.468;2023-07-31T00:43:56;43.32;40.62;46.45;;
73342;Laerm;61578;52.002;5.468;2023-07-31T00:44:46;43.15;40.34;46.37;;
73342;Laerm;61578;52.002;5.468;2023-07-31T00:45:32;42.88;39.81;45.91;;
73342;Laerm;61578;52.002;5.468;2023-07-31T00:46:22;42.83;39.82;45.87;;
73342;Laerm;61578;52.002;5.468;2023-07-31T00:46:54;43.00;40.30;45.84;;
73342;Laerm;61578;52.002;5.468;2023-07-31T00:47:35;44.35;41.09;48.10;;
73342;Laerm;61578;52.002;5.468;2023-07-31T00:48:26;43.16;40.64;46.85;;
73342;Laerm;61578;52.002;5.468;2023-07-31T00:49:16;43.30;40.24;46.33;;
73342;Laerm;61578;52.002;5.468;2023-07-31T00:50:08;43.25;40.82;46.62;;
73342;Laerm;61578;52.002;5.468;2023-07-31T00:50:57;43.11;40.13;46.70;;
73342;Laerm;61578;52.002;5.468;2023-07-31T00:51:43;43.42;40.27;47.16;;
73342;Laerm;61578;52.002;5.468;2023-07-31T00:52:32;44.01;40.66;47.18;;
73342;Laerm;61578;52.002;5.468;2023-07-31T00:53:24;43.50;41.02;46.76;;
73342;Laerm;61578;52.002;5.468;2023-07-31T00:53:55;43.27;40.84;46.34;;
73342;Laerm;61578;52.002;5.468;2023-07-31T00:54:45;43.09;40.20;46.60;;
73342;Laerm;61578;52.002;5.468;2023-07-31T00:55:34;43.03;39.79;46.51;;
73342;Laerm;61578;52.002;5.468;2023-07-31T00:56:25;42.99;40.02;46.73;;
73342;Laerm;61578;52.002;5.468;2023-07-31T00:56:56;43.24;40.48;46.89;;
73342;Laerm;61578;52.002;5.468;2023-07-31T00:57:46;43.29;40.84;53.66;;
73342;Laerm;61578;52.002;5.468;2023-07-31T00:58:37;44.11;40.80;48.05;;
73342;Laerm;61578;52.002;5.468;2023-07-31T00:59:26;43.20;40.16;46.55;;
73342;Laerm;61578;52.002;5.468;2023-07-31T00:59:56;43.20;40.74;46.88;;
73342;Laerm;61578;52.002;5.468;2023-07-31T01:00:27;43.55;41.22;46.82;;
73342;Laerm;61578;52.002;5.468;2023-07-31T01:00:58;43.41;40.60;46.39;;
73342;Laerm;61578;52.002;5.468;2023-07-31T01:01:31;43.20;40.68;46.41;;
73342;Laerm;61578;52.002;5.468;2023-07-31T01:02:11;43.93;40.68;49.64;;
73342;Laerm;61578;52.002;5.468;2023-07-31T01:02:43;43.88;41.53;47.56;;
73342;Laerm;61578;52.002;5.468;2023-07-31T01:03:32;43.27;40.13;46.42;;
73342;Laerm;61578;52.002;5.468;2023-07-31T01:04:18;43.40;40.52;47.08;;
73342;Laerm;61578;52.002;5.468;2023-07-31T01:04:49;43.76;40.87;47.35;;
73342;Laerm;61578;52.002;5.468;2023-07-31T01:06:54;43.62;41.26;46.70;;
73342;Laerm;61578;52.002;5.468;2023-07-31T01:07:59;43.22;40.19;46.46;;
73342;Laerm;61578;52.002;5.468;2023-07-31T01:08:42;43.81;40.42;47.85;;
73342;Laerm;61578;52.002;5.468;2023-07-31T01:09:57;43.19;40.32;46.55;;
73342;Laerm;61578;52.002;5.468;2023-07-31T01:10:46;43.24;39.93;48.08;;
73342;Laerm;61578;52.002;5.468;2023-07-31T01:11:29;43.45;40.73;50.93;;
73342;Laerm;61578;52.002;5.468;2023-07-31T01:12:20;43.09;40.46;54.63;;
73342;Laerm;61578;52.002;5.468;2023-07-31T01:12:56;43.04;40.18;45.90;;
73342;Laerm;61578;52.002;5.468;2023-07-31T01:13:28;42.94;39.94;46.01;;
73342;Laerm;61578;52.002;5.468;2023-07-31T01:14:19;43.34;40.56;51.59;;
73342;Laerm;61578;52.002;5.468;2023-07-31T01:15:06;43.20;40.25;46.67;;
73342;Laerm;61578;52.002;5.468;2023-07-31T01:15:59;43.35;39.90;46.76;;
73342;Laerm;61578;52.002;5.468;2023-07-31T01:16:30;43.50;40.74;46.65;;
73342;Laerm;61578;52.002;5.468;2023-07-31T01:17:16;43.32;40.19;46.25;;
73342;Laerm;61578;52.002;5.468;2023-07-31T01:17:46;42.88;40.10;46.04;;
73342;Laerm;61578;52.002;5.468;2023-07-31T01:18:36;43.02;40.07;45.97;;
73342;Laerm;61578;52.002;5.468;2023-07-31T01:19:27;42.95;39.54;46.11;;
73342;Laerm;61578;52.002;5.468;2023-07-31T01:20:26;42.99;40.39;46.02;;
73342;Laerm;61578;52.002;5.468;2023-07-31T01:24:04;43.00;39.82;46.25;;
73342;Laerm;61578;52.002;5.468;2023-07-31T01:26:39;43.37;40.54;46.77;;
73342;Laerm;61578;52.002;5.468;2023-07-31T01:27:22;45.34;41.59;51.25;;
73342;Laerm;61578;52.002;5.468;2023-07-31T01:28:05;43.64;40.70;46.82;;
73342;Laerm;61578;52.002;5.468;2023-07-31T01:30:36;43.23;39.80;46.02;;
73342;Laerm;61578;52.002;5.468;2023-07-31T01:31:25;42.96;40.35;46.47;;
73342;Laerm;61578;52.002;5.468;2023-07-31T01:32:02;42.96;39.99;46.35;;
73342;Laerm;61578;52.002;5.468;2023-07-31T01:32:35;42.95;40.29;47.08;;
73342;Laerm;61578;52.002;5.468;2023-07-31T01:33:07;42.81;40.13;46.20;;
73342;Laerm;61578;52.002;5.468;2023-07-31T01:33:40;42.93;40.32;46.20;;
73342;Laerm;61578;52.002;5.468;2023-07-31T01:34:15;43.18;40.57;46.32;;
73342;Laerm;61578;52.002;5.468;2023-07-31T01:34:52;42.82;40.11;45.69;;
73342;Laerm;61578;52.002;5.468;2023-07-31T01:35:27;42.92;40.09;46.62;;
73342;Laerm;61578;52.002;5.468;2023-07-31T01:36:01;43.23;40.78;46.29;;
73342;Laerm;61578;52.002;5.468;2023-07-31T01:36:32;42.99;39.82;45.57;;
73342;Laerm;61578;52.002;5.468;2023-07-31T01:37:04;43.04;40.61;45.89;;
73342;Laerm;61578;52.002;5.468;2023-07-31T01:37:34;43.24;40.43;47.16;;
73342;Laerm;61578;52.002;5.468;2023-07-31T01:38:05;43.22;40.71;46.61;;
73342;Laerm;61578;52.002;5.468;2023-07-31T01:38:36;43.10;40.62;46.55;;
73342;Laerm;61578;52.002;5.468;2023-07-31T01:39:07;43.94;41.19;49.77;;
73342;Laerm;61578;52.002;5.468;2023-07-31T01:39:38;45.47;40.84;67.41;;
73342;Laerm;61578;52.002;5.468;2023-07-31T01:40:09;43.27;40.91;46.48;;
73342;Laerm;61578;52.002;5.468;2023-07-31T01:40:42;42.84;40.45;45.56;;
73342;Laerm;61578;52.002;5.468;2023-07-31T01:41:13;44.31;40.59;64.05;;
73342;Laerm;61578;52.002;5.468;2023-07-31T01:41:46;43.30;40.71;46.69;;
73342;Laerm;61578;52.002;5.468;2023-07-31T01:42:17;43.41;40.46;49.17;;
73342;Laerm;61578;52.002;5.468;2023-07-31T01:42:48;43.39;40.09;47.39;;
73342;Laerm;61578;52.002;5.468;2023-07-31T01:43:19;43.84;41.15;59.86;;
73342;Laerm;61578;52.002;5.468;2023-07-31T01:43:49;44.91;40.65;67.65;;
73342;Laerm;61578;52.002;5.468;2023-07-31T01:44:20;43.32;41.10;49.37;;
73342;Laerm;61578;52.002;5.468;2023-07-31T01:44:54;43.00;40.33;48.21;;
73342;Laerm;61578;52.002;5.468;2023-07-31T01:45:28;43.18;40.70;51.93;;
73342;Laerm;61578;52.002;5.468;2023-07-31T01:45:59;44.30;42.15;52.67;;
73342;Laerm;61578;52.002;5.468;2023-07-31T01:46:32;45.43;42.42;63.74;;
73342;Laerm;61578;52.002;5.468;2023-07-31T01:47:06;47.04;43.37;64.13;;
73342;Laerm;61578;52.002;5.468;2023-07-31T01:47:37;45.95;43.44;62.75;;
73342;Laerm;61578;52.002;5.468;2023-07-31T01:48:10;44.67;41.87;57.54;;
73342;Laerm;61578;52.002;5.468;2023-07-31T01:48:41;43.88;41.52;52.79;;
73342;Laerm;61578;52.002;5.468;2023-07-31T01:49:13;44.36;42.14;52.76;;
73342;Laerm;61578;52.002;5.468;2023-07-31T01:49:43;45.44;43.02;48.49;;
73342;Laerm;61578;52.002;5.468;2023-07-31T01:50:14;44.65;42.39;56.21;;
73342;Laerm;61578;52.002;5.468;2023-07-31T01:50:45;44.12;41.67;51.55;;
73342;Laerm;61578;52.002;5.468;2023-07-31T01:51:34;43.89;41.28;50.65;;
73342;Laerm;61578;52.002;5.468;2023-07-31T01:52:06;44.00;41.66;46.96;;
73342;Laerm;61578;52.002;5.468;2023-07-31T01:52:37;44.18;41.09;62.26;;
73342;Laerm;61578;52.002;5.468;2023-07-31T01:53:11;44.42;41.13;64.67;;
73342;Laerm;61578;52.002;5.468;2023-07-31T01:53:42;44.19;41.03;62.26;;
73342;Laerm;61578;52.002;5.468;2023-07-31T01:54:16;44.19;41.68;56.27;;
73342;Laerm;61578;52.002;5.468;2023-07-31T01:54:47;43.83;41.25;49.02;;
73342;Laerm;61578;52.002;5.468;2023-07-31T01:55:37;44.28;40.78;58.83;;
73342;Laerm;61578;52.002;5.468;2023-07-31T01:56:20;44.79;42.34;59.99;;
73342;Laerm;61578;52.002;5.468;2023-07-31T01:56:50;45.89;43.34;58.88;;
73342;Laerm;61578;52.002;5.468;2023-07-31T01:57:40;46.80;43.52;68.79;;
73342;Laerm;61578;52.002;5.468;2023-07-31T01:58:26;46.31;43.08;67.63;;
73342;Laerm;61578;52.002;5.468;2023-07-31T01:58:57;47.63;44.65;63.39;;
73342;Laerm;61578;52.002;5.468;2023-07-31T01:59:33;47.19;43.42;66.46;;
73342;Laerm;61578;52.002;5.468;2023-07-31T02:00:22;45.12;42.09;56.89;;
73342;Laerm;61578;52.002;5.468;2023-07-31T02:00:53;44.37;41.55;59.92;;
73342;Laerm;61578;52.002;5.468;2023-07-31T02:01:43;44.83;42.03;55.53;;
73342;Laerm;61578;52.002;5.468;2023-07-31T02:02:32;45.00;42.59;47.70;;
73342;Laerm;61578;52.002;5.468;2023-07-31T02:03:22;46.97;41.50;50.98;;
73342;Laerm;61578;52.002;5.468;2023-07-31T02:04:12;44.82;41.29;49.00;;
73342;Laerm;61578;52.002;5.468;2023-07-31T02:04:43;44.83;41.70;48.45;;
73342;Laerm;61578;52.002;5.468;2023-07-31T02:05:23;44.65;41.30;47.98;;
73342;Laerm;61578;52.002;5.468;2023-07-31T02:05:56;44.96;41.67;48.45;;
73342;Laerm;61578;52.002;5.468;2023-07-31T02:06:30;45.42;41.70;49.56;;
73342;Laerm;61578;52.002;5.468;2023-07-31T02:07:19;44.62;41.27;48.45;;
73342;Laerm;61578;52.002;5.468;2023-07-31T02:08:09;43.52;40.57;47.96;;
73342;Laerm;61578;52.002;5.468;2023-07-31T02:08:39;44.59;41.14;47.61;;
73342;Laerm;61578;52.002;5.468;2023-07-31T02:09:29;44.17;41.18;51.83;;
73342;Laerm;61578;52.002;5.468;2023-07-31T02:10:18;43.52;40.79;50.52;;
73342;Laerm;61578;52.002;5.468;2023-07-31T02:10:57;44.94;40.79;67.34;;
73342;Laerm;61578;52.002;5.468;2023-07-31T02:11:46;43.77;41.14;60.51;;
73342;Laerm;61578;52.002;5.468;2023-07-31T02:12:35;43.29;40.08;54.11;;
73342;Laerm;61578;52.002;5.468;2023-07-31T02:13:21;42.91;40.52;46.23;;
73342;Laerm;61578;52.002;5.468;2023-07-31T02:13:52;42.77;40.42;45.67;;
73342;Laerm;61578;52.002;5.468;2023-07-31T02:14:42;43.23;40.11;51.08;;
73342;Laerm;61578;52.002;5.468;2023-07-31T02:15:12;43.36;40.25;46.67;;
73342;Laerm;61578;52.002;5.468;2023-07-31T02:15:45;43.25;40.75;46.13;;
73342;Laerm;61578;52.002;5.468;2023-07-31T02:16:34;42.97;39.93;46.58;;
73342;Laerm;61578;52.002;5.468;2023-07-31T02:17:11;43.16;40.51;46.42;;
73342;Laerm;61578;52.002;5.468;2023-07-31T02:17:42;43.10;40.33;46.70;;
73342;Laerm;61578;52.002;5.468;2023-07-31T02:18:12;42.98;40.36;51.65;;
73342;Laerm;61578;52.002;5.468;2023-07-31T02:18:43;42.97;40.28;49.30;;
73342;Laerm;61578;52.002;5.468;2023-07-31T02:19:14;42.66;40.00;45.93;;
73342;Laerm;61578;52.002;5.468;2023-07-31T02:19:44;42.93;40.25;46.15;;
73342;Laerm;61578;52.002;5.468;2023-07-31T02:20:15;43.01;39.89;46.61;;
73342;Laerm;61578;52.002;5.468;2023-07-31T02:20:52;42.74;39.91;45.77;;
73342;Laerm;61578;52.002;5.468;2023-07-31T02:21:23;42.79;39.69;45.77;;
73342;Laerm;61578;52.002;5.468;2023-07-31T02:21:54;42.96;40.38;47.83;;
73342;Laerm;61578;52.002;5.468;2023-07-31T02:22:24;43.02;40.41;46.33;;
73342;Laerm;61578;52.002;5.468;2023-07-31T02:22:55;43.20;39.52;46.52;;
73342;Laerm;61578;52.002;5.468;2023-07-31T02:23:26;46.09;40.75;53.12;;
73342;Laerm;61578;52.002;5.468;2023-07-31T02:23:56;44.29;40.35;49.60;;
73342;Laerm;61578;52.002;5.468;2023-07-31T02:24:30;43.18;40.53;45.82;;
73342;Laerm;61578;52.002;5.468;2023-07-31T02:25:08;43.30;40.86;45.98;;
73342;Laerm;61578;52.002;5.468;2023-07-31T02:25:39;43.73;41.11;46.64;;
73342;Laerm;61578;52.002;5.468;2023-07-31T02:26:13;42.83;39.84;46.62;;
73342;Laerm;61578;52.002;5.468;2023-07-31T02:26:43;42.97;40.45;46.66;;
73342;Laerm;61578;52.002;5.468;2023-07-31T02:27:33;42.78;39.98;45.77;;
73342;Laerm;61578;52.002;5.468;2023-07-31T02:28:15;42.82;39.99;46.21;;
73342;Laerm;61578;52.002;5.468;2023-07-31T02:28:49;42.99;40.36;46.97;;
73342;Laerm;61578;52.002;5.468;2023-07-31T02:29:39;42.81;40.06;45.92;;
73342;Laerm;61578;52.002;5.468;2023-07-31T02:30:29;42.89;40.15;45.73;;
73342;Laerm;61578;52.002;5.468;2023-07-31T02:31:17;42.89;40.08;46.46;;
73342;Laerm;61578;52.002;5.468;2023-07-31T02:31:48;42.77;40.29;45.77;;
73342;Laerm;61578;52.002;5.468;2023-07-31T02:32:38;42.86;40.09;46.83;;
73342;Laerm;61578;52.002;5.468;2023-07-31T02:33:11;43.05;40.10;46.03;;
73342;Laerm;61578;52.002;5.468;2023-07-31T02:33:42;42.59;40.10;45.95;;
73342;Laerm;61578;52.002;5.468;2023-07-31T02:34:31;42.92;40.13;45.68;;
73342;Laerm;61578;52.002;5.468;2023-07-31T02:35:21;43.09;40.49;46.32;;
73342;Laerm;61578;52.002;5.468;2023-07-31T02:35:54;42.96;40.30;46.12;;
73342;Laerm;61578;52.002;5.468;2023-07-31T02:36:43;43.25;40.35;56.37;;
73342;Laerm;61578;52.002;5.468;2023-07-31T02:37:33;42.94;40.04;45.82;;
73342;Laerm;61578;52.002;5.468;2023-07-31T02:38:07;42.72;39.74;45.56;;
73342;Laerm;61578;52.002;5.468;2023-07-31T02:38:38;43.07;40.45;45.63;;
73342;Laerm;61578;52.002;5.468;2023-07-31T02:39:27;42.90;39.80;46.06;;
73342;Laerm;61578;52.002;5.468;2023-07-31T02:39:58;43.05;40.34;46.88;;
73342;Laerm;61578;52.002;5.468;2023-07-31T02:40:29;42.99;40.24;46.92;;
73342;Laerm;61578;52.002;5.468;2023-07-31T02:41:18;42.79;40.30;46.19;;
73342;Laerm;61578;52.002;5.468;2023-07-31T02:41:49;42.77;39.61;45.69;;
73342;Laerm;61578;52.002;5.468;2023-07-31T02:42:20;42.70;39.85;46.53;;
73342;Laerm;61578;52.002;5.468;2023-07-31T02:42:51;42.68;39.79;46.32;;
73342;Laerm;61578;52.002;5.468;2023-07-31T02:43:40;42.94;39.60;46.16;;
73342;Laerm;61578;52.002;5.468;2023-07-31T02:44:17;42.88;40.08;47.02;;
73342;Laerm;61578;52.002;5.468;2023-07-31T02:44:47;42.74;40.25;46.31;;
73342;Laerm;61578;52.002;5.468;2023-07-31T02:45:37;42.90;39.74;46.47;;
73342;Laerm;61578;52.002;5.468;2023-07-31T02:46:20;42.93;39.78;46.84;;
73342;Laerm;61578;52.002;5.468;2023-07-31T02:46:54;43.16;39.74;54.89;;
73342;Laerm;61578;52.002;5.468;2023-07-31T02:47:40;42.91;40.37;45.91;;
73342;Laerm;61578;52.002;5.468;2023-07-31T02:48:26;43.10;40.06;46.31;;
73342;Laerm;61578;52.002;5.468;2023-07-31T02:49:16;42.82;39.84;46.13;;
73342;Laerm;61578;52.002;5.468;2023-07-31T02:50:06;43.11;40.06;47.59;;
73342;Laerm;61578;52.002;5.468;2023-07-31T02:50:37;42.73;40.23;45.71;;
73342;Laerm;61578;52.002;5.468;2023-07-31T02:51:26;42.93;39.76;46.76;;
73342;Laerm;61578;52.002;5.468;2023-07-31T02:51:57;42.89;39.99;46.55;;
73342;Laerm;61578;52.002;5.468;2023-07-31T02:52:31;42.88;39.90;45.83;;
73342;Laerm;61578;52.002;5.468;2023-07-31T02:53:20;43.06;39.63;46.38;;
73342;Laerm;61578;52.002;5.468;2023-07-31T02:53:55;43.16;40.29;45.85;;
73342;Laerm;61578;52.002;5.468;2023-07-31T02:54:40;42.95;40.01;46.22;;
73342;Laerm;61578;52.002;5.468;2023-07-31T02:55:29;42.99;40.29;47.59;;
73342;Laerm;61578;52.002;5.468;2023-07-31T02:56:18;42.90;39.97;46.36;;
73342;Laerm;61578;52.002;5.468;2023-07-31T02:56:49;42.89;40.22;45.71;;
73342;Laerm;61578;52.002;5.468;2023-07-31T02:57:26;43.18;39.91;46.57;;
73342;Laerm;61578;52.002;5.468;2023-07-31T02:57:57;43.16;40.27;47.00;;
73342;Laerm;61578;52.002;5.468;2023-07-31T02:58:41;43.19;40.92;46.33;;
73342;Laerm;61578;52.002;5.468;2023-07-31T02:59:23;43.12;40.28;46.75;;
73342;Laerm;61578;52.002;5.468;2023-07-31T02:59:55;43.63;40.74;46.34;;
73342;Laerm;61578;52.002;5.468;2023-07-31T03:00:44;43.13;40.13;46.50;;
73342;Laerm;61578;52.002;5.468;2023-07-31T03:01:34;42.81;39.76;45.47;;
73342;Laerm;61578;52.002;5.468;2023-07-31T03:02:08;43.94;41.21;50.53;;
73342;Laerm;61578;52.002;5.468;2023-07-31T03:02:39;43.82;40.90;48.86;;
73342;Laerm;61578;52.002;5.468;2023-07-31T03:03:28;43.06;40.34;46.37;;
73342;Laerm;61578;52.002;5.468;2023-07-31T03:03:59;43.12;40.13;46.13;;
73342;Laerm;61578;52.002;5.468;2023-07-31T03:04:48;43.04;40.18;45.96;;
73342;Laerm;61578;52.002;5.468;2023-07-31T03:05:19;42.73;40.12;46.38;;
73342;Laerm;61578;52.002;5.468;2023-07-31T03:05:50;43.05;40.55;45.98;;
73342;Laerm;61578;52.002;5.468;2023-07-31T03:06:40;43.09;40.40;46.52;;
73342;Laerm;61578;52.002;5.468;2023-07-31T03:07:14;43.02;40.65;45.75;;
73342;Laerm;61578;52.002;5.468;2023-07-31T03:07:47;42.87;40.38;46.02;;
73342;Laerm;61578;52.002;5.468;2023-07-31T03:08:18;43.12;40.15;46.32;;
73342;Laerm;61578;52.002;5.468;2023-07-31T03:08:48;42.81;40.27;46.21;;
73342;Laerm;61578;52.002;5.468;2023-07-31T03:09:19;42.93;40.57;46.10;;
73342;Laerm;61578;52.002;5.468;2023-07-31T03:09:50;43.21;40.38;46.29;;
73342;Laerm;61578;52.002;5.468;2023-07-31T03:10:39;43.20;40.57;46.22;;
73342;Laerm;61578;52.002;5.468;2023-07-31T03:11:19;43.35;40.72;46.27;;
73342;Laerm;61578;52.002;5.468;2023-07-31T03:11:50;43.01;40.18;46.83;;
73342;Laerm;61578;52.002;5.468;2023-07-31T03:12:40;42.92;40.14;46.02;;
73342;Laerm;61578;52.002;5.468;2023-07-31T03:13:26;42.69;40.01;45.79;;
73342;Laerm;61578;52.002;5.468;2023-07-31T03:13:57;42.68;39.77;45.26;;
73342;Laerm;61578;52.002;5.468;2023-07-31T03:14:47;42.87;40.04;45.90;;
73342;Laerm;61578;52.002;5.468;2023-07-31T03:15:33;42.95;40.22;46.50;;
73342;Laerm;61578;52.002;5.468;2023-07-31T03:16:25;42.85;39.86;45.89;;
73342;Laerm;61578;52.002;5.468;2023-07-31T03:16:56;43.03;39.82;46.75;;
73342;Laerm;61578;52.002;5.468;2023-07-31T03:17:36;42.99;39.98;46.17;;
73342;Laerm;61578;52.002;5.468;2023-07-31T03:18:26;43.42;40.19;46.86;;
73342;Laerm;61578;52.002;5.468;2023-07-31T03:19:02;43.23;40.45;46.49;;
73342;Laerm;61578;52.002;5.468;2023-07-31T03:19:33;43.09;40.60;45.57;;
73342;Laerm;61578;52.002;5.468;2023-07-31T03:20:23;42.99;40.04;46.45;;
73342;Laerm;61578;52.002;5.468;2023-07-31T03:21:12;43.36;39.94;46.73;;
73342;Laerm;61578;52.002;5.468;2023-07-31T03:21:46;43.98;40.83;47.04;;
73342;Laerm;61578;52.002;5.468;2023-07-31T03:22:36;43.25;40.79;46.07;;
73342;Laerm;61578;52.002;5.468;2023-07-31T03:23:25;43.76;40.52;46.89;;
73342;Laerm;61578;52.002;5.468;2023-07-31T03:23:56;44.13;40.90;47.10;;
73342;Laerm;61578;52.002;5.468;2023-07-31T03:24:45;43.11;40.25;46.20;;
73342;Laerm;61578;52.002;5.468;2023-07-31T03:25:34;43.27;40.31;45.92;;
73342;Laerm;61578;52.002;5.468;2023-07-31T03:26:23;43.39;40.73;47.00;;
73342;Laerm;61578;52.002;5.468;2023-07-31T03:26:54;43.07;39.72;46.21;;
73342;Laerm;61578;52.002;5.468;2023-07-31T03:27:43;42.88;40.19;46.77;;
73342;Laerm;61578;52.002;5.468;2023-07-31T03:28:14;43.15;40.28;46.59;;
73342;Laerm;61578;52.002;5.468;2023-07-31T03:28:45;43.15;40.58;46.95;;
73342;Laerm;61578;52.002;5.468;2023-07-31T03:29:34;42.89;39.79;46.56;;
73342;Laerm;61578;52.002;5.468;2023-07-31T03:30:06;42.90;39.48;45.93;;
73342;Laerm;61578;52.002;5.468;2023-07-31T03:30:37;43.69;40.57;46.47;;
73342;Laerm;61578;52.002;5.468;2023-07-31T03:31:27;44.11;40.78;51.18;;
73342;Laerm;61578;52.002;5.468;2023-07-31T03:31:58;43.23;40.89;46.03;;
73342;Laerm;61578;52.002;5.468;2023-07-31T03:32:29;43.15;40.44;46.32;;
73342;Laerm;61578;52.002;5.468;2023-07-31T03:33:19;42.92;40.25;46.90;;
73342;Laerm;61578;52.002;5.468;2023-07-31T03:34:08;42.73;40.04;45.72;;
73342;Laerm;61578;52.002;5.468;2023-07-31T03:34:39;43.14;40.60;47.18;;
73342;Laerm;61578;52.002;5.468;2023-07-31T03:35:28;43.19;40.34;49.39;;
73342;Laerm;61578;52.002;5.468;2023-07-31T03:35:59;43.09;40.11;49.24;;
73342;Laerm;61578;52.002;5.468;2023-07-31T03:36:30;43.30;40.79;46.07;;
73342;Laerm;61578;52.002;5.468;2023-07-31T03:37:19;42.84;39.67;46.15;;
73342;Laerm;61578;52.002;5.468;2023-07-31T03:37:50;45.62;41.49;53.93;;
73342;Laerm;61578;52.002;5.468;2023-07-31T03:38:26;45.39;41.02;52.51;;
73342;Laerm;61578;52.002;5.468;2023-07-31T03:38:57;43.57;41.32;46.79;;
73342;Laerm;61578;52.002;5.468;2023-07-31T03:39:46;43.31;40.44;46.66;;
73342;Laerm;61578;52.002;5.468;2023-07-31T03:40:29;43.22;40.19;46.81;;
73342;Laerm;61578;52.002;5.468;2023-07-31T03:41:18;43.15;40.58;46.69;;
73342;Laerm;61578;52.002;5.468;2023-07-31T03:41:49;43.14;39.92;46.13;;
73342;Laerm;61578;52.002;5.468;2023-07-31T03:42:35;42.97;40.41;46.11;;
73342;Laerm;61578;52.002;5.468;2023-07-31T03:43:24;43.16;40.11;46.09;;
73342;Laerm;61578;52.002;5.468;2023-07-31T03:44:14;43.13;40.46;46.74;;
73342;Laerm;61578;52.002;5.468;2023-07-31T03:44:45;42.89;40.54;46.04;;
73342;Laerm;61578;52.002;5.468;2023-07-31T03:45:19;42.97;40.61;45.87;;
73342;Laerm;61578;52.002;5.468;2023-07-31T03:45:50;42.99;40.37;46.73;;
73342;Laerm;61578;52.002;5.468;2023-07-31T03:46:39;42.82;40.01;45.58;;
73342;Laerm;61578;52.002;5.468;2023-07-31T03:47:29;43.09;40.22;46.45;;
73342;Laerm;61578;52.002;5.468;2023-07-31T03:48:19;43.52;40.30;46.71;;
73342;Laerm;61578;52.002;5.468;2023-07-31T03:48:50;43.22;40.42;46.56;;